sensor_id;sensor_type;location;lat;lon;timestamp;P1;durP1;ratioP1;P2;durP2;ratioP2
46463;SDS011;32161;48.148;-1.554;2022-09-06T00:00:13;7.35;;;3.60;;
46463;SDS011;32161;48.148;-1.554;2022-09-06T00:02:43;8.43;;;3.60;;
46463;SDS011;32161;48.148;-1.554;2022-09-06T00:05:11;6.40;;;3.25;;
46463;SDS011;32161;48.148;-1.554;2022-09-06T00:07:40;6.68;;;3.20;;
46463;SDS011;32161;48.148;-1.554;2022-09-06T00:10:08;5.65;;;2.53;;
46463;SDS011;32161;48.148;-1.554;2022-09-06T00:12:36;9.05;;;3.30;;
46463;SDS011;32161;48.148;-1.554;2022-09-06T00:15:04;7.85;;;3.28;;
46463;SDS011;32161;48.148;-1.554;2022-09-06T00:17:33;4.45;;;2.80;;
46463;SDS011;32161;48.148;-1.554;2022-09-06T00:20:01;7.28;;;2.88;;
46463;SDS011;32161;48.148;-1.554;2022-09-06T00:22:32;6.15;;;3.20;;
46463;SDS011;32161;48.148;-1.554;2022-09-06T00:25:02;6.75;;;2.85;;
46463;SDS011;32161;48.148;-1.554;2022-09-06T00:27:30;6.68;;;2.70;;
46463;SDS011;32161;48.148;-1.554;2022-09-06T00:29:58;4.55;;;2.55;;
46463;SDS011;32161;48.148;-1.554;2022-09-06T00:32:26;5.07;;;2.47;;
46463;SDS011;32161;48.148;-1.554;2022-09-06T00:34:53;5.43;;;3.05;;
46463;SDS011;32161;48.148;-1.554;2022-09-06T00:37:21;4.63;;;2.33;;
46463;SDS011;32161;48.148;-1.554;2022-09-06T00:39:48;3.78;;;2.25;;
46463;SDS011;32161;48.148;-1.554;2022-09-06T00:42:17;3.65;;;2.22;;
46463;SDS011;32161;48.148;-1.554;2022-09-06T00:44:45;6.28;;;2.65;;
46463;SDS011;32161;48.148;-1.554;2022-09-06T00:47:14;4.00;;;2.35;;
46463;SDS011;32161;48.148;-1.554;2022-09-06T00:49:43;4.97;;;2.00;;
46463;SDS011;32161;48.148;-1.554;2022-09-06T00:52:15;4.05;;;1.75;;
46463;SDS011;32161;48.148;-1.554;2022-09-06T00:54:44;5.60;;;2.10;;
46463;SDS011;32161;48.148;-1.554;2022-09-06T00:57:13;6.75;;;2.30;;
46463;SDS011;32161;48.148;-1.554;2022-09-06T00:59:44;3.72;;;2.13;;
46463;SDS011;32161;48.148;-1.554;2022-09-06T01:02:13;3.38;;;2.28;;
46463;SDS011;32161;48.148;-1.554;2022-09-06T01:04:41;4.95;;;2.50;;
46463;SDS011;32161;48.148;-1.554;2022-09-06T01:07:12;6.72;;;2.45;;
46463;SDS011;32161;48.148;-1.554;2022-09-06T01:09:58;8.27;;;2.13;;
46463;SDS011;32161;48.148;-1.554;2022-09-06T01:12:46;5.93;;;2.42;;
46463;SDS011;32161;48.148;-1.554;2022-09-06T01:15:30;4.95;;;3.03;;
46463;SDS011;32161;48.148;-1.554;2022-09-06T01:18:06;8.27;;;2.55;;
46463;SDS011;32161;48.148;-1.554;2022-09-06T01:20:50;6.55;;;2.30;;
46463;SDS011;32161;48.148;-1.554;2022-09-06T01:27:11;5.90;;;2.97;;
46463;SDS011;32161;48.148;-1.554;2022-09-06T01:30:19;7.90;;;2.90;;
46463;SDS011;32161;48.148;-1.554;2022-09-06T01:32:50;5.85;;;2.58;;
46463;SDS011;32161;48.148;-1.554;2022-09-06T01:35:26;9.20;;;2.97;;
46463;SDS011;32161;48.148;-1.554;2022-09-06T01:38:01;5.25;;;2.60;;
46463;SDS011;32161;48.148;-1.554;2022-09-06T01:40:30;2.70;;;2.05;;
46463;SDS011;32161;48.148;-1.554;2022-09-06T01:43:01;4.13;;;2.10;;
46463;SDS011;32161;48.148;-1.554;2022-09-06T01:45:34;12.05;;;2.60;;
46463;SDS011;32161;48.148;-1.554;2022-09-06T01:48:13;6.43;;;2.30;;
46463;SDS011;32161;48.148;-1.554;2022-09-06T01:50:52;8.73;;;2.50;;
46463;SDS011;32161;48.148;-1.554;2022-09-06T01:56:42;6.05;;;2.47;;
46463;SDS011;32161;48.148;-1.554;2022-09-06T01:59:27;9.07;;;2.40;;
46463;SDS011;32161;48.148;-1.554;2022-09-06T02:02:12;11.75;;;3.33;;
46463;SDS011;32161;48.148;-1.554;2022-09-06T02:04:47;10.23;;;2.08;;
46463;SDS011;32161;48.148;-1.554;2022-09-06T02:07:19;11.77;;;2.22;;
46463;SDS011;32161;48.148;-1.554;2022-09-06T02:09:51;6.90;;;2.28;;
46463;SDS011;32161;48.148;-1.554;2022-09-06T02:12:23;8.88;;;2.10;;
46463;SDS011;32161;48.148;-1.554;2022-09-06T02:14:55;5.63;;;2.03;;
46463;SDS011;32161;48.148;-1.554;2022-09-06T02:17:29;8.55;;;2.95;;
46463;SDS011;32161;48.148;-1.554;2022-09-06T02:20:02;8.77;;;2.35;;
46463;SDS011;32161;48.148;-1.554;2022-09-06T02:22:35;7.47;;;2.38;;
46463;SDS011;32161;48.148;-1.554;2022-09-06T02:25:10;9.55;;;2.50;;
46463;SDS011;32161;48.148;-1.554;2022-09-06T02:27:42;8.48;;;2.55;;
46463;SDS011;32161;48.148;-1.554;2022-09-06T02:30:12;10.23;;;2.65;;
46463;SDS011;32161;48.148;-1.554;2022-09-06T02:32:41;6.85;;;2.30;;
46463;SDS011;32161;48.148;-1.554;2022-09-06T02:35:14;8.23;;;2.00;;
46463;SDS011;32161;48.148;-1.554;2022-09-06T02:37:43;13.80;;;2.92;;
46463;SDS011;32161;48.148;-1.554;2022-09-06T02:40:11;5.68;;;1.92;;
46463;SDS011;32161;48.148;-1.554;2022-09-06T02:42:38;13.40;;;2.88;;
46463;SDS011;32161;48.148;-1.554;2022-09-06T02:45:07;6.38;;;2.30;;
46463;SDS011;32161;48.148;-1.554;2022-09-06T02:47:36;9.70;;;2.35;;
46463;SDS011;32161;48.148;-1.554;2022-09-06T02:50:04;13.10;;;2.97;;
46463;SDS011;32161;48.148;-1.554;2022-09-06T02:52:33;13.90;;;2.30;;
46463;SDS011;32161;48.148;-1.554;2022-09-06T02:55:00;10.20;;;2.60;;
46463;SDS011;32161;48.148;-1.554;2022-09-06T02:57:28;13.05;;;2.53;;
46463;SDS011;32161;48.148;-1.554;2022-09-06T02:59:56;10.23;;;2.60;;
46463;SDS011;32161;48.148;-1.554;2022-09-06T03:02:23;9.05;;;2.17;;
46463;SDS011;32161;48.148;-1.554;2022-09-06T03:04:52;8.95;;;2.20;;
46463;SDS011;32161;48.148;-1.554;2022-09-06T03:07:20;10.18;;;2.65;;
46463;SDS011;32161;48.148;-1.554;2022-09-06T03:09:47;8.10;;;2.05;;
46463;SDS011;32161;48.148;-1.554;2022-09-06T03:12:15;9.50;;;2.47;;
46463;SDS011;32161;48.148;-1.554;2022-09-06T03:14:43;7.32;;;2.15;;
46463;SDS011;32161;48.148;-1.554;2022-09-06T03:17:10;14.18;;;1.98;;
46463;SDS011;32161;48.148;-1.554;2022-09-06T03:19:38;15.05;;;2.58;;
46463;SDS011;32161;48.148;-1.554;2022-09-06T03:22:07;8.68;;;2.30;;
46463;SDS011;32161;48.148;-1.554;2022-09-06T03:24:34;7.75;;;1.95;;
46463;SDS011;32161;48.148;-1.554;2022-09-06T03:27:02;15.90;;;2.50;;
46463;SDS011;32161;48.148;-1.554;2022-09-06T03:29:30;11.52;;;2.60;;
46463;SDS011;32161;48.148;-1.554;2022-09-06T03:31:57;13.48;;;2.78;;
46463;SDS011;32161;48.148;-1.554;2022-09-06T03:34:25;8.00;;;2.45;;
46463;SDS011;32161;48.148;-1.554;2022-09-06T03:36:52;16.73;;;2.80;;
46463;SDS011;32161;48.148;-1.554;2022-09-06T03:39:21;9.52;;;2.28;;
46463;SDS011;32161;48.148;-1.554;2022-09-06T03:41:49;12.52;;;2.45;;
46463;SDS011;32161;48.148;-1.554;2022-09-06T03:44:16;16.58;;;2.75;;
46463;SDS011;32161;48.148;-1.554;2022-09-06T03:46:44;8.63;;;2.78;;
46463;SDS011;32161;48.148;-1.554;2022-09-06T03:49:12;10.05;;;2.60;;
46463;SDS011;32161;48.148;-1.554;2022-09-06T03:51:39;19.23;;;2.92;;
46463;SDS011;32161;48.148;-1.554;2022-09-06T03:54:07;10.13;;;2.15;;
46463;SDS011;32161;48.148;-1.554;2022-09-06T03:56:36;8.55;;;2.65;;
46463;SDS011;32161;48.148;-1.554;2022-09-06T03:59:04;14.50;;;2.75;;
46463;SDS011;32161;48.148;-1.554;2022-09-06T04:01:31;12.30;;;2.20;;
46463;SDS011;32161;48.148;-1.554;2022-09-06T04:03:59;15.93;;;4.53;;
46463;SDS011;32161;48.148;-1.554;2022-09-06T04:06:26;9.65;;;2.42;;
46463;SDS011;32161;48.148;-1.554;2022-09-06T04:08:54;14.90;;;2.88;;
46463;SDS011;32161;48.148;-1.554;2022-09-06T04:11:22;8.30;;;2.72;;
46463;SDS011;32161;48.148;-1.554;2022-09-06T04:13:51;11.23;;;2.92;;
46463;SDS011;32161;48.148;-1.554;2022-09-06T04:16:18;13.00;;;2.95;;
46463;SDS011;32161;48.148;-1.554;2022-09-06T04:18:46;10.60;;;2.17;;
46463;SDS011;32161;48.148;-1.554;2022-09-06T04:21:13;12.90;;;3.08;;
46463;SDS011;32161;48.148;-1.554;2022-09-06T04:23:41;13.93;;;2.45;;
46463;SDS011;32161;48.148;-1.554;2022-09-06T04:26:09;10.85;;;2.20;;
46463;SDS011;32161;48.148;-1.554;2022-09-06T04:28:36;13.45;;;3.10;;
46463;SDS011;32161;48.148;-1.554;2022-09-06T04:31:05;11.80;;;2.60;;
46463;SDS011;32161;48.148;-1.554;2022-09-06T04:33:34;12.75;;;2.95;;
46463;SDS011;32161;48.148;-1.554;2022-09-06T04:36:03;14.90;;;2.63;;
46463;SDS011;32161;48.148;-1.554;2022-09-06T04:38:34;14.20;;;2.70;;
46463;SDS011;32161;48.148;-1.554;2022-09-06T04:41:04;14.32;;;3.42;;
46463;SDS011;32161;48.148;-1.554;2022-09-06T04:43:33;17.45;;;3.15;;
46463;SDS011;32161;48.148;-1.554;2022-09-06T04:46:06;21.33;;;3.08;;
46463;SDS011;32161;48.148;-1.554;2022-09-06T04:48:46;9.13;;;2.60;;
46463;SDS011;32161;48.148;-1.554;2022-09-06T04:51:14;16.80;;;2.88;;
46463;SDS011;32161;48.148;-1.554;2022-09-06T04:53:42;13.35;;;2.90;;
46463;SDS011;32161;48.148;-1.554;2022-09-06T04:56:10;12.25;;;2.92;;
46463;SDS011;32161;48.148;-1.554;2022-09-06T04:58:42;12.50;;;3.15;;
46463;SDS011;32161;48.148;-1.554;2022-09-06T05:01:12;15.82;;;3.83;;
46463;SDS011;32161;48.148;-1.554;2022-09-06T05:03:40;11.77;;;2.20;;
46463;SDS011;32161;48.148;-1.554;2022-09-06T05:06:08;13.15;;;3.13;;
46463;SDS011;32161;48.148;-1.554;2022-09-06T05:08:38;13.90;;;2.50;;
46463;SDS011;32161;48.148;-1.554;2022-09-06T05:11:07;18.45;;;3.08;;
46463;SDS011;32161;48.148;-1.554;2022-09-06T05:13:35;14.20;;;2.65;;
46463;SDS011;32161;48.148;-1.554;2022-09-06T05:16:04;13.35;;;2.78;;
46463;SDS011;32161;48.148;-1.554;2022-09-06T05:18:35;7.30;;;2.53;;
46463;SDS011;32161;48.148;-1.554;2022-09-06T05:21:03;21.60;;;3.35;;
46463;SDS011;32161;48.148;-1.554;2022-09-06T05:23:31;16.58;;;3.65;;
46463;SDS011;32161;48.148;-1.554;2022-09-06T05:26:00;13.20;;;2.60;;
46463;SDS011;32161;48.148;-1.554;2022-09-06T05:28:27;16.23;;;2.47;;
46463;SDS011;32161;48.148;-1.554;2022-09-06T05:31:03;15.70;;;2.88;;
46463;SDS011;32161;48.148;-1.554;2022-09-06T05:33:33;10.57;;;2.72;;
46463;SDS011;32161;48.148;-1.554;2022-09-06T05:36:02;16.13;;;2.58;;
46463;SDS011;32161;48.148;-1.554;2022-09-06T05:38:31;16.85;;;2.13;;
46463;SDS011;32161;48.148;-1.554;2022-09-06T05:40:58;10.68;;;2.17;;
46463;SDS011;32161;48.148;-1.554;2022-09-06T05:43:26;13.88;;;2.10;;
46463;SDS011;32161;48.148;-1.554;2022-09-06T05:45:53;13.38;;;1.90;;
46463;SDS011;32161;48.148;-1.554;2022-09-06T05:48:21;8.95;;;2.03;;
46463;SDS011;32161;48.148;-1.554;2022-09-06T05:50:57;15.90;;;2.75;;
46463;SDS011;32161;48.148;-1.554;2022-09-06T05:53:31;16.45;;;2.83;;
46463;SDS011;32161;48.148;-1.554;2022-09-06T05:56:00;11.18;;;2.67;;
46463;SDS011;32161;48.148;-1.554;2022-09-06T05:58:29;11.70;;;2.60;;
46463;SDS011;32161;48.148;-1.554;2022-09-06T06:01:03;10.43;;;2.10;;
46463;SDS011;32161;48.148;-1.554;2022-09-06T06:03:39;11.32;;;2.45;;
46463;SDS011;32161;48.148;-1.554;2022-09-06T06:06:07;13.70;;;2.20;;
46463;SDS011;32161;48.148;-1.554;2022-09-06T06:08:36;11.45;;;2.20;;
46463;SDS011;32161;48.148;-1.554;2022-09-06T06:11:04;16.35;;;2.42;;
46463;SDS011;32161;48.148;-1.554;2022-09-06T06:13:31;12.05;;;2.45;;
46463;SDS011;32161;48.148;-1.554;2022-09-06T06:16:03;13.32;;;2.75;;
46463;SDS011;32161;48.148;-1.554;2022-09-06T06:18:32;11.27;;;2.45;;
46463;SDS011;32161;48.148;-1.554;2022-09-06T06:21:09;10.25;;;2.65;;
46463;SDS011;32161;48.148;-1.554;2022-09-06T06:23:40;10.25;;;2.60;;
46463;SDS011;32161;48.148;-1.554;2022-09-06T06:26:09;13.38;;;2.15;;
46463;SDS011;32161;48.148;-1.554;2022-09-06T06:28:38;11.05;;;2.40;;
46463;SDS011;32161;48.148;-1.554;2022-09-06T06:31:07;13.55;;;2.85;;
46463;SDS011;32161;48.148;-1.554;2022-09-06T06:33:37;12.03;;;2.77;;
46463;SDS011;32161;48.148;-1.554;2022-09-06T06:36:06;12.90;;;3.42;;
46463;SDS011;32161;48.148;-1.554;2022-09-06T06:38:48;14.95;;;2.75;;
46463;SDS011;32161;48.148;-1.554;2022-09-06T06:41:18;18.35;;;2.70;;
46463;SDS011;32161;48.148;-1.554;2022-09-06T06:43:49;14.68;;;2.45;;
46463;SDS011;32161;48.148;-1.554;2022-09-06T06:46:18;9.60;;;2.33;;
46463;SDS011;32161;48.148;-1.554;2022-09-06T06:48:47;12.35;;;2.40;;
46463;SDS011;32161;48.148;-1.554;2022-09-06T06:51:17;17.50;;;2.65;;
46463;SDS011;32161;48.148;-1.554;2022-09-06T06:53:47;11.75;;;3.30;;
46463;SDS011;32161;48.148;-1.554;2022-09-06T06:56:16;15.05;;;3.15;;
46463;SDS011;32161;48.148;-1.554;2022-09-06T06:58:46;11.57;;;3.00;;
46463;SDS011;32161;48.148;-1.554;2022-09-06T07:01:17;15.77;;;2.70;;
46463;SDS011;32161;48.148;-1.554;2022-09-06T07:03:46;14.25;;;2.88;;
46463;SDS011;32161;48.148;-1.554;2022-09-06T07:06:15;14.15;;;2.70;;
46463;SDS011;32161;48.148;-1.554;2022-09-06T07:08:43;9.98;;;2.65;;
46463;SDS011;32161;48.148;-1.554;2022-09-06T07:11:13;12.07;;;2.38;;
46463;SDS011;32161;48.148;-1.554;2022-09-06T07:13:42;12.13;;;2.53;;
46463;SDS011;32161;48.148;-1.554;2022-09-06T07:16:11;10.73;;;3.08;;
46463;SDS011;32161;48.148;-1.554;2022-09-06T07:18:40;7.47;;;1.70;;
46463;SDS011;32161;48.148;-1.554;2022-09-06T07:21:10;9.43;;;2.67;;
46463;SDS011;32161;48.148;-1.554;2022-09-06T07:23:39;10.10;;;2.22;;
46463;SDS011;32161;48.148;-1.554;2022-09-06T07:26:13;10.75;;;2.08;;
46463;SDS011;32161;48.148;-1.554;2022-09-06T07:28:42;9.77;;;1.83;;
46463;SDS011;32161;48.148;-1.554;2022-09-06T07:31:10;10.30;;;2.20;;
46463;SDS011;32161;48.148;-1.554;2022-09-06T07:33:39;11.38;;;1.73;;
46463;SDS011;32161;48.148;-1.554;2022-09-06T07:36:07;6.13;;;1.80;;
46463;SDS011;32161;48.148;-1.554;2022-09-06T07:38:35;9.70;;;1.67;;
46463;SDS011;32161;48.148;-1.554;2022-09-06T07:41:04;10.35;;;2.50;;
46463;SDS011;32161;48.148;-1.554;2022-09-06T07:43:34;9.65;;;2.08;;
46463;SDS011;32161;48.148;-1.554;2022-09-06T07:46:03;11.18;;;2.55;;
46463;SDS011;32161;48.148;-1.554;2022-09-06T07:48:34;7.88;;;1.95;;
46463;SDS011;32161;48.148;-1.554;2022-09-06T07:51:04;11.00;;;1.97;;
46463;SDS011;32161;48.148;-1.554;2022-09-06T07:53:34;16.75;;;2.85;;
46463;SDS011;32161;48.148;-1.554;2022-09-06T07:56:03;11.55;;;2.33;;
46463;SDS011;32161;48.148;-1.554;2022-09-06T07:58:35;9.90;;;2.05;;
46463;SDS011;32161;48.148;-1.554;2022-09-06T08:01:17;7.35;;;2.60;;
46463;SDS011;32161;48.148;-1.554;2022-09-06T08:03:54;7.93;;;2.00;;
46463;SDS011;32161;48.148;-1.554;2022-09-06T08:06:22;15.10;;;3.30;;
46463;SDS011;32161;48.148;-1.554;2022-09-06T08:08:51;16.05;;;2.70;;
46463;SDS011;32161;48.148;-1.554;2022-09-06T08:11:24;16.70;;;2.85;;
46463;SDS011;32161;48.148;-1.554;2022-09-06T08:13:56;12.10;;;2.72;;
46463;SDS011;32161;48.148;-1.554;2022-09-06T08:16:25;12.32;;;2.17;;
46463;SDS011;32161;48.148;-1.554;2022-09-06T08:18:56;9.27;;;1.83;;
46463;SDS011;32161;48.148;-1.554;2022-09-06T08:21:26;12.73;;;2.63;;
46463;SDS011;32161;48.148;-1.554;2022-09-06T08:23:56;16.27;;;2.55;;
46463;SDS011;32161;48.148;-1.554;2022-09-06T08:26:26;13.20;;;2.25;;
46463;SDS011;32161;48.148;-1.554;2022-09-06T08:28:57;12.52;;;3.10;;
46463;SDS011;32161;48.148;-1.554;2022-09-06T08:31:26;13.63;;;2.67;;
46463;SDS011;32161;48.148;-1.554;2022-09-06T08:33:55;12.77;;;2.67;;
46463;SDS011;32161;48.148;-1.554;2022-09-06T08:36:24;13.70;;;2.92;;
46463;SDS011;32161;48.148;-1.554;2022-09-06T08:38:53;9.77;;;1.88;;
46463;SDS011;32161;48.148;-1.554;2022-09-06T08:41:25;15.57;;;2.55;;
46463;SDS011;32161;48.148;-1.554;2022-09-06T08:43:58;17.60;;;2.80;;
46463;SDS011;32161;48.148;-1.554;2022-09-06T08:46:31;13.77;;;2.63;;
46463;SDS011;32161;48.148;-1.554;2022-09-06T08:49:04;19.27;;;3.33;;
46463;SDS011;32161;48.148;-1.554;2022-09-06T08:54:39;16.63;;;2.45;;
46463;SDS011;32161;48.148;-1.554;2022-09-06T08:57:14;16.15;;;3.08;;
46463;SDS011;32161;48.148;-1.554;2022-09-06T08:59:58;19.42;;;3.67;;
46463;SDS011;32161;48.148;-1.554;2022-09-06T09:02:36;11.73;;;2.80;;
46463;SDS011;32161;48.148;-1.554;2022-09-06T09:05:16;13.90;;;3.20;;
46463;SDS011;32161;48.148;-1.554;2022-09-06T09:07:56;10.73;;;2.65;;
46463;SDS011;32161;48.148;-1.554;2022-09-06T09:10:34;15.30;;;3.08;;
46463;SDS011;32161;48.148;-1.554;2022-09-06T09:13:08;17.10;;;2.75;;
46463;SDS011;32161;48.148;-1.554;2022-09-06T09:15:47;18.30;;;2.85;;
46463;SDS011;32161;48.148;-1.554;2022-09-06T09:18:16;14.80;;;2.22;;
46463;SDS011;32161;48.148;-1.554;2022-09-06T09:20:49;14.27;;;3.60;;
46463;SDS011;32161;48.148;-1.554;2022-09-06T09:23:17;9.68;;;2.60;;
46463;SDS011;32161;48.148;-1.554;2022-09-06T09:25:45;14.40;;;2.55;;
46463;SDS011;32161;48.148;-1.554;2022-09-06T09:28:18;16.02;;;2.30;;
46463;SDS011;32161;48.148;-1.554;2022-09-06T09:30:50;12.07;;;2.67;;
46463;SDS011;32161;48.148;-1.554;2022-09-06T09:33:21;14.88;;;2.88;;
46463;SDS011;32161;48.148;-1.554;2022-09-06T09:35:54;8.38;;;2.33;;
46463;SDS011;32161;48.148;-1.554;2022-09-06T09:38:25;8.70;;;2.27;;
46463;SDS011;32161;48.148;-1.554;2022-09-06T09:40:55;8.45;;;2.25;;
46463;SDS011;32161;48.148;-1.554;2022-09-06T09:43:27;7.25;;;1.90;;
46463;SDS011;32161;48.148;-1.554;2022-09-06T09:46:12;4.70;;;1.52;;
46463;SDS011;32161;48.148;-1.554;2022-09-06T09:49:03;9.85;;;2.63;;
46463;SDS011;32161;48.148;-1.554;2022-09-06T09:51:35;13.20;;;2.35;;
46463;SDS011;32161;48.148;-1.554;2022-09-06T09:54:05;7.85;;;2.08;;
46463;SDS011;32161;48.148;-1.554;2022-09-06T09:56:36;12.55;;;1.95;;
46463;SDS011;32161;48.148;-1.554;2022-09-06T09:59:16;3.40;;;1.20;;
46463;SDS011;32161;48.148;-1.554;2022-09-06T10:01:50;7.28;;;1.67;;
46463;SDS011;32161;48.148;-1.554;2022-09-06T10:04:23;6.25;;;1.55;;
46463;SDS011;32161;48.148;-1.554;2022-09-06T10:07:07;7.70;;;1.88;;
46463;SDS011;32161;48.148;-1.554;2022-09-06T10:09:38;4.93;;;1.38;;
46463;SDS011;32161;48.148;-1.554;2022-09-06T10:12:08;7.57;;;2.35;;
46463;SDS011;32161;48.148;-1.554;2022-09-06T10:14:44;4.43;;;1.88;;
46463;SDS011;32161;48.148;-1.554;2022-09-06T10:17:18;5.90;;;2.38;;
46463;SDS011;32161;48.148;-1.554;2022-09-06T10:19:54;6.80;;;1.67;;
46463;SDS011;32161;48.148;-1.554;2022-09-06T10:22:26;7.53;;;1.65;;
46463;SDS011;32161;48.148;-1.554;2022-09-06T10:25:08;10.23;;;1.88;;
46463;SDS011;32161;48.148;-1.554;2022-09-06T10:31:11;7.70;;;1.65;;
46463;SDS011;32161;48.148;-1.554;2022-09-06T10:34:11;5.70;;;1.55;;
46463;SDS011;32161;48.148;-1.554;2022-09-06T10:37:09;7.55;;;2.15;;
46463;SDS011;32161;48.148;-1.554;2022-09-06T10:39:54;6.43;;;1.65;;
46463;SDS011;32161;48.148;-1.554;2022-09-06T10:42:30;4.25;;;1.08;;
46463;SDS011;32161;48.148;-1.554;2022-09-06T10:45:26;7.25;;;1.90;;
46463;SDS011;32161;48.148;-1.554;2022-09-06T10:48:12;5.82;;;1.30;;
46463;SDS011;32161;48.148;-1.554;2022-09-06T10:50:53;3.70;;;1.70;;
46463;SDS011;32161;48.148;-1.554;2022-09-06T10:53:31;4.82;;;1.40;;
46463;SDS011;32161;48.148;-1.554;2022-09-06T10:56:09;6.88;;;1.30;;
46463;SDS011;32161;48.148;-1.554;2022-09-06T10:58:45;4.88;;;1.38;;
46463;SDS011;32161;48.148;-1.554;2022-09-06T11:01:28;7.32;;;1.90;;
46463;SDS011;32161;48.148;-1.554;2022-09-06T11:04:01;4.88;;;1.77;;
46463;SDS011;32161;48.148;-1.554;2022-09-06T11:06:38;5.78;;;1.40;;
46463;SDS011;32161;48.148;-1.554;2022-09-06T11:09:11;7.10;;;1.45;;
46463;SDS011;32161;48.148;-1.554;2022-09-06T11:11:47;6.78;;;1.33;;
46463;SDS011;32161;48.148;-1.554;2022-09-06T11:14:26;10.55;;;1.60;;
46463;SDS011;32161;48.148;-1.554;2022-09-06T11:16:56;2.30;;;0.98;;
46463;SDS011;32161;48.148;-1.554;2022-09-06T11:19:30;3.75;;;1.10;;
46463;SDS011;32161;48.148;-1.554;2022-09-06T11:22:14;5.18;;;1.55;;
46463;SDS011;32161;48.148;-1.554;2022-09-06T11:25:22;4.18;;;1.27;;
46463;SDS011;32161;48.148;-1.554;2022-09-06T11:28:12;6.00;;;1.38;;
46463;SDS011;32161;48.148;-1.554;2022-09-06T11:30:46;5.45;;;1.60;;
46463;SDS011;32161;48.148;-1.554;2022-09-06T11:33:18;3.40;;;1.73;;
46463;SDS011;32161;48.148;-1.554;2022-09-06T11:35:50;4.43;;;1.13;;
46463;SDS011;32161;48.148;-1.554;2022-09-06T11:38:24;7.38;;;1.38;;
46463;SDS011;32161;48.148;-1.554;2022-09-06T11:40:56;4.07;;;1.20;;
46463;SDS011;32161;48.148;-1.554;2022-09-06T11:43:43;6.43;;;1.48;;
46463;SDS011;32161;48.148;-1.554;2022-09-06T11:49:31;7.13;;;1.63;;
46463;SDS011;32161;48.148;-1.554;2022-09-06T11:52:01;5.55;;;1.33;;
46463;SDS011;32161;48.148;-1.554;2022-09-06T11:55:32;3.45;;;1.23;;
46463;SDS011;32161;48.148;-1.554;2022-09-06T11:58:04;6.65;;;1.33;;
46463;SDS011;32161;48.148;-1.554;2022-09-06T12:00:37;4.88;;;1.30;;
46463;SDS011;32161;48.148;-1.554;2022-09-06T12:03:06;5.30;;;1.02;;
46463;SDS011;32161;48.148;-1.554;2022-09-06T12:08:45;3.90;;;1.10;;
46463;SDS011;32161;48.148;-1.554;2022-09-06T12:11:22;7.18;;;1.92;;
46463;SDS011;32161;48.148;-1.554;2022-09-06T12:13:59;4.30;;;1.70;;
46463;SDS011;32161;48.148;-1.554;2022-09-06T12:28:24;2.80;;;0.90;;
46463;SDS011;32161;48.148;-1.554;2022-09-06T12:31:33;5.38;;;1.40;;
46463;SDS011;32161;48.148;-1.554;2022-09-06T12:34:06;9.00;;;2.17;;
46463;SDS011;32161;48.148;-1.554;2022-09-06T12:36:45;5.43;;;1.17;;
46463;SDS011;32161;48.148;-1.554;2022-09-06T12:39:22;8.93;;;2.20;;
46463;SDS011;32161;48.148;-1.554;2022-09-06T12:41:51;7.45;;;1.27;;
46463;SDS011;32161;48.148;-1.554;2022-09-06T12:44:26;7.30;;;1.42;;
46463;SDS011;32161;48.148;-1.554;2022-09-06T12:47:01;7.57;;;1.50;;
46463;SDS011;32161;48.148;-1.554;2022-09-06T12:49:35;7.35;;;1.77;;
46463;SDS011;32161;48.148;-1.554;2022-09-06T12:52:10;7.18;;;1.65;;
46463;SDS011;32161;48.148;-1.554;2022-09-06T12:54:40;6.28;;;1.52;;
46463;SDS011;32161;48.148;-1.554;2022-09-06T12:57:12;5.07;;;1.65;;
46463;SDS011;32161;48.148;-1.554;2022-09-06T12:59:49;4.47;;;1.33;;
46463;SDS011;32161;48.148;-1.554;2022-09-06T13:02:21;6.45;;;1.55;;
46463;SDS011;32161;48.148;-1.554;2022-09-06T13:04:59;5.13;;;1.20;;
46463;SDS011;32161;48.148;-1.554;2022-09-06T13:07:31;6.43;;;1.42;;
46463;SDS011;32161;48.148;-1.554;2022-09-06T13:10:09;7.53;;;1.55;;
46463;SDS011;32161;48.148;-1.554;2022-09-06T13:12:41;4.95;;;1.45;;
46463;SDS011;32161;48.148;-1.554;2022-09-06T13:15:16;6.72;;;1.50;;
46463;SDS011;32161;48.148;-1.554;2022-09-06T13:17:49;4.05;;;1.63;;
46463;SDS011;32161;48.148;-1.554;2022-09-06T13:20:21;7.43;;;1.88;;
46463;SDS011;32161;48.148;-1.554;2022-09-06T13:22:52;7.95;;;1.52;;
46463;SDS011;32161;48.148;-1.554;2022-09-06T13:25:33;7.32;;;1.73;;
46463;SDS011;32161;48.148;-1.554;2022-09-06T13:28:21;7.05;;;1.77;;
46463;SDS011;32161;48.148;-1.554;2022-09-06T13:31:03;8.18;;;2.17;;
46463;SDS011;32161;48.148;-1.554;2022-09-06T13:33:33;5.25;;;1.48;;
46463;SDS011;32161;48.148;-1.554;2022-09-06T13:36:06;4.47;;;1.10;;
46463;SDS011;32161;48.148;-1.554;2022-09-06T13:38:46;6.82;;;1.58;;
46463;SDS011;32161;48.148;-1.554;2022-09-06T13:44:26;7.70;;;1.92;;
46463;SDS011;32161;48.148;-1.554;2022-09-06T13:46:57;7.00;;;1.45;;
46463;SDS011;32161;48.148;-1.554;2022-09-06T13:49:25;5.32;;;1.50;;
46463;SDS011;32161;48.148;-1.554;2022-09-06T13:51:53;4.97;;;1.30;;
46463;SDS011;32161;48.148;-1.554;2022-09-06T13:54:25;4.63;;;1.05;;
46463;SDS011;32161;48.148;-1.554;2022-09-06T13:56:53;4.22;;;1.10;;
46463;SDS011;32161;48.148;-1.554;2022-09-06T13:59:23;5.30;;;0.90;;
46463;SDS011;32161;48.148;-1.554;2022-09-06T14:01:54;3.47;;;1.00;;
46463;SDS011;32161;48.148;-1.554;2022-09-06T14:04:29;5.53;;;1.38;;
46463;SDS011;32161;48.148;-1.554;2022-09-06T14:06:57;2.83;;;0.95;;
46463;SDS011;32161;48.148;-1.554;2022-09-06T14:09:25;3.78;;;1.10;;
46463;SDS011;32161;48.148;-1.554;2022-09-06T14:11:53;4.13;;;1.38;;
46463;SDS011;32161;48.148;-1.554;2022-09-06T14:14:21;5.03;;;1.45;;
46463;SDS011;32161;48.148;-1.554;2022-09-06T14:16:49;4.00;;;1.23;;
46463;SDS011;32161;48.148;-1.554;2022-09-06T14:19:18;2.20;;;0.73;;
46463;SDS011;32161;48.148;-1.554;2022-09-06T14:21:45;4.38;;;1.38;;
46463;SDS011;32161;48.148;-1.554;2022-09-06T14:24:13;4.13;;;1.05;;
46463;SDS011;32161;48.148;-1.554;2022-09-06T14:26:41;3.13;;;1.00;;
46463;SDS011;32161;48.148;-1.554;2022-09-06T14:29:08;4.47;;;0.80;;
46463;SDS011;32161;48.148;-1.554;2022-09-06T14:31:36;4.72;;;1.38;;
46463;SDS011;32161;48.148;-1.554;2022-09-06T14:34:04;4.20;;;1.27;;
46463;SDS011;32161;48.148;-1.554;2022-09-06T14:36:33;4.07;;;0.95;;
46463;SDS011;32161;48.148;-1.554;2022-09-06T14:39:00;3.20;;;0.93;;
46463;SDS011;32161;48.148;-1.554;2022-09-06T14:41:28;5.97;;;1.10;;
46463;SDS011;32161;48.148;-1.554;2022-09-06T14:43:56;6.45;;;2.03;;
46463;SDS011;32161;48.148;-1.554;2022-09-06T14:46:25;6.32;;;1.42;;
46463;SDS011;32161;48.148;-1.554;2022-09-06T14:48:57;3.08;;;1.20;;
46463;SDS011;32161;48.148;-1.554;2022-09-06T14:51:27;10.23;;;1.35;;
46463;SDS011;32161;48.148;-1.554;2022-09-06T14:53:57;10.20;;;1.38;;
46463;SDS011;32161;48.148;-1.554;2022-09-06T14:56:28;5.18;;;1.08;;
46463;SDS011;32161;48.148;-1.554;2022-09-06T14:58:55;4.65;;;1.60;;
46463;SDS011;32161;48.148;-1.554;2022-09-06T15:01:24;6.10;;;1.95;;
46463;SDS011;32161;48.148;-1.554;2022-09-06T15:03:55;8.90;;;1.35;;
46463;SDS011;32161;48.148;-1.554;2022-09-06T15:06:24;7.82;;;1.92;;
46463;SDS011;32161;48.148;-1.554;2022-09-06T15:08:52;5.95;;;1.90;;
46463;SDS011;32161;48.148;-1.554;2022-09-06T15:11:28;9.18;;;1.67;;
46463;SDS011;32161;48.148;-1.554;2022-09-06T15:13:58;10.00;;;1.73;;
46463;SDS011;32161;48.148;-1.554;2022-09-06T15:16:26;7.15;;;1.40;;
46463;SDS011;32161;48.148;-1.554;2022-09-06T15:18:55;10.82;;;1.73;;
46463;SDS011;32161;48.148;-1.554;2022-09-06T15:21:23;5.15;;;1.60;;
46463;SDS011;32161;48.148;-1.554;2022-09-06T15:23:51;6.78;;;1.52;;
46463;SDS011;32161;48.148;-1.554;2022-09-06T15:26:19;5.55;;;1.38;;
46463;SDS011;32161;48.148;-1.554;2022-09-06T15:28:48;5.28;;;1.20;;
46463;SDS011;32161;48.148;-1.554;2022-09-06T15:31:16;11.43;;;2.13;;